sensor_id;sensor_type;location;lat;lon;timestamp;P1;durP1;ratioP1;P2;durP2;ratioP2
19257;SDS011;9763;48.780;9.212;2024-01-11T00:01:45;16.73;;;11.70;;
19257;SDS011;9763;48.780;9.212;2024-01-11T00:05:11;18.07;;;11.83;;
19257;SDS011;9763;48.780;9.212;2024-01-11T00:08:35;17.43;;;11.47;;
19257;SDS011;9763;48.780;9.212;2024-01-11T00:11:59;17.43;;;11.53;;
19257;SDS011;9763;48.780;9.212;2024-01-11T00:15:23;17.50;;;12.00;;
19257;SDS011;9763;48.780;9.212;2024-01-11T00:18:48;14.90;;;10.70;;
19257;SDS011;9763;48.780;9.212;2024-01-11T00:22:12;18.10;;;11.67;;
19257;SDS011;9763;48.780;9.212;2024-01-11T00:25:35;14.00;;;10.97;;
19257;SDS011;9763;48.780;9.212;2024-01-11T00:28:59;16.83;;;12.17;;
19257;SDS011;9763;48.780;9.212;2024-01-11T00:32:23;18.80;;;12.10;;
19257;SDS011;9763;48.780;9.212;2024-01-11T00:35:48;17.87;;;11.07;;
19257;SDS011;9763;48.780;9.212;2024-01-11T00:39:11;15.10;;;10.30;;
19257;SDS011;9763;48.780;9.212;2024-01-11T00:42:35;16.37;;;10.50;;
19257;SDS011;9763;48.780;9.212;2024-01-11T00:45:59;17.47;;;11.67;;
19257;SDS011;9763;48.780;9.212;2024-01-11T00:49:23;16.20;;;12.20;;
19257;SDS011;9763;48.780;9.212;2024-01-11T00:52:48;25.83;;;12.47;;
19257;SDS011;9763;48.780;9.212;2024-01-11T00:56:15;18.20;;;11.80;;
19257;SDS011;9763;48.780;9.212;2024-01-11T00:59:39;23.23;;;12.70;;
19257;SDS011;9763;48.780;9.212;2024-01-11T01:03:03;18.90;;;12.70;;
19257;SDS011;9763;48.780;9.212;2024-01-11T01:06:27;15.83;;;11.57;;
19257;SDS011;9763;48.780;9.212;2024-01-11T01:09:52;17.07;;;11.90;;
19257;SDS011;9763;48.780;9.212;2024-01-11T01:13:15;16.57;;;10.80;;
19257;SDS011;9763;48.780;9.212;2024-01-11T01:16:39;20.27;;;12.70;;
19257;SDS011;9763;48.780;9.212;2024-01-11T01:20:03;18.97;;;11.57;;
19257;SDS011;9763;48.780;9.212;2024-01-11T01:23:28;19.47;;;11.67;;
19257;SDS011;9763;48.780;9.212;2024-01-11T01:26:53;17.27;;;12.03;;
19257;SDS011;9763;48.780;9.212;2024-01-11T01:30:16;19.03;;;13.07;;
19257;SDS011;9763;48.780;9.212;2024-01-11T01:33:40;20.30;;;12.27;;
19257;SDS011;9763;48.780;9.212;2024-01-11T01:37:04;17.27;;;11.67;;
19257;SDS011;9763;48.780;9.212;2024-01-11T01:40:29;17.30;;;11.50;;
19257;SDS011;9763;48.780;9.212;2024-01-11T01:43:54;18.63;;;12.00;;
19257;SDS011;9763;48.780;9.212;2024-01-11T01:47:18;15.37;;;11.20;;
19257;SDS011;9763;48.780;9.212;2024-01-11T01:50:42;17.93;;;12.20;;
19257;SDS011;9763;48.780;9.212;2024-01-11T01:54:11;18.43;;;12.13;;
19257;SDS011;9763;48.780;9.212;2024-01-11T01:57:35;17.77;;;12.00;;
19257;SDS011;9763;48.780;9.212;2024-01-11T02:01:04;17.10;;;11.73;;
19257;SDS011;9763;48.780;9.212;2024-01-11T02:04:32;19.53;;;11.80;;
19257;SDS011;9763;48.780;9.212;2024-01-11T02:07:57;14.87;;;11.03;;
19257;SDS011;9763;48.780;9.212;2024-01-11T02:11:24;18.43;;;11.57;;
19257;SDS011;9763;48.780;9.212;2024-01-11T02:14:49;15.50;;;11.10;;
19257;SDS011;9763;48.780;9.212;2024-01-11T02:18:16;16.40;;;11.80;;
19257;SDS011;9763;48.780;9.212;2024-01-11T02:21:40;18.40;;;11.60;;
19257;SDS011;9763;48.780;9.212;2024-01-11T02:25:07;17.10;;;11.00;;
19257;SDS011;9763;48.780;9.212;2024-01-11T02:28:31;15.60;;;10.57;;
19257;SDS011;9763;48.780;9.212;2024-01-11T02:31:54;16.80;;;10.80;;
19257;SDS011;9763;48.780;9.212;2024-01-11T02:35:19;13.53;;;10.57;;
19257;SDS011;9763;48.780;9.212;2024-01-11T02:38:42;15.97;;;10.27;;
19257;SDS011;9763;48.780;9.212;2024-01-11T02:42:07;20.17;;;11.80;;
19257;SDS011;9763;48.780;9.212;2024-01-11T02:45:31;18.00;;;11.27;;
19257;SDS011;9763;48.780;9.212;2024-01-11T02:48:55;16.97;;;11.50;;
19257;SDS011;9763;48.780;9.212;2024-01-11T02:52:19;15.40;;;10.60;;
19257;SDS011;9763;48.780;9.212;2024-01-11T02:55:42;20.00;;;12.43;;
19257;SDS011;9763;48.780;9.212;2024-01-11T02:59:07;16.60;;;11.03;;
19257;SDS011;9763;48.780;9.212;2024-01-11T03:02:31;18.70;;;10.80;;
19257;SDS011;9763;48.780;9.212;2024-01-11T03:05:54;17.43;;;10.90;;
19257;SDS011;9763;48.780;9.212;2024-01-11T03:09:18;16.53;;;11.00;;
19257;SDS011;9763;48.780;9.212;2024-01-11T03:12:43;18.63;;;11.30;;
19257;SDS011;9763;48.780;9.212;2024-01-11T03:16:07;16.40;;;11.00;;
19257;SDS011;9763;48.780;9.212;2024-01-11T03:19:31;17.87;;;11.17;;
19257;SDS011;9763;48.780;9.212;2024-01-11T03:22:55;17.07;;;11.40;;
19257;SDS011;9763;48.780;9.212;2024-01-11T03:26:18;17.97;;;10.47;;
19257;SDS011;9763;48.780;9.212;2024-01-11T03:29:42;15.20;;;10.53;;
19257;SDS011;9763;48.780;9.212;2024-01-11T03:33:07;16.33;;;10.27;;
19257;SDS011;9763;48.780;9.212;2024-01-11T03:36:31;14.57;;;10.10;;
19257;SDS011;9763;48.780;9.212;2024-01-11T03:39:55;17.20;;;10.90;;
19257;SDS011;9763;48.780;9.212;2024-01-11T03:43:18;18.10;;;11.50;;
19257;SDS011;9763;48.780;9.212;2024-01-11T03:46:42;13.87;;;10.30;;
19257;SDS011;9763;48.780;9.212;2024-01-11T03:50:07;15.77;;;10.70;;
19257;SDS011;9763;48.780;9.212;2024-01-11T03:53:34;17.40;;;11.17;;
19257;SDS011;9763;48.780;9.212;2024-01-11T03:56:59;15.57;;;11.37;;
19257;SDS011;9763;48.780;9.212;2024-01-11T04:00:22;16.73;;;11.07;;
19257;SDS011;9763;48.780;9.212;2024-01-11T04:03:46;13.90;;;9.77;;
19257;SDS011;9763;48.780;9.212;2024-01-11T04:07:11;13.73;;;9.17;;
19257;SDS011;9763;48.780;9.212;2024-01-11T04:10:34;15.70;;;10.17;;
19257;SDS011;9763;48.780;9.212;2024-01-11T04:13:58;15.03;;;9.70;;
19257;SDS011;9763;48.780;9.212;2024-01-11T04:17:22;13.33;;;10.07;;
19257;SDS011;9763;48.780;9.212;2024-01-11T04:20:45;15.17;;;10.30;;
19257;SDS011;9763;48.780;9.212;2024-01-11T04:24:10;16.43;;;11.07;;
19257;SDS011;9763;48.780;9.212;2024-01-11T04:27:34;20.10;;;13.27;;
19257;SDS011;9763;48.780;9.212;2024-01-11T04:30:58;17.60;;;12.30;;
19257;SDS011;9763;48.780;9.212;2024-01-11T04:34:21;14.67;;;10.60;;
19257;SDS011;9763;48.780;9.212;2024-01-11T04:37:45;16.43;;;11.90;;
19257;SDS011;9763;48.780;9.212;2024-01-11T04:41:10;18.07;;;11.40;;
19257;SDS011;9763;48.780;9.212;2024-01-11T04:44:35;17.47;;;10.63;;
19257;SDS011;9763;48.780;9.212;2024-01-11T04:47:58;13.03;;;9.73;;
19257;SDS011;9763;48.780;9.212;2024-01-11T04:51:22;14.57;;;10.10;;
19257;SDS011;9763;48.780;9.212;2024-01-11T04:54:46;22.60;;;11.03;;
19257;SDS011;9763;48.780;9.212;2024-01-11T04:58:10;14.70;;;9.63;;
19257;SDS011;9763;48.780;9.212;2024-01-11T05:01:34;14.20;;;10.00;;
19257;SDS011;9763;48.780;9.212;2024-01-11T05:04:57;14.80;;;10.23;;
19257;SDS011;9763;48.780;9.212;2024-01-11T05:08:21;15.83;;;10.60;;
19257;SDS011;9763;48.780;9.212;2024-01-11T05:11:45;12.97;;;9.70;;
19257;SDS011;9763;48.780;9.212;2024-01-11T05:15:11;14.97;;;10.00;;
19257;SDS011;9763;48.780;9.212;2024-01-11T05:18:34;15.67;;;9.90;;
19257;SDS011;9763;48.780;9.212;2024-01-11T05:21:58;14.17;;;9.50;;
19257;SDS011;9763;48.780;9.212;2024-01-11T05:25:21;17.97;;;10.50;;
19257;SDS011;9763;48.780;9.212;2024-01-11T05:28:45;13.30;;;9.20;;
19257;SDS011;9763;48.780;9.212;2024-01-11T05:32:10;16.37;;;10.00;;
19257;SDS011;9763;48.780;9.212;2024-01-11T05:35:33;16.87;;;10.67;;
19257;SDS011;9763;48.780;9.212;2024-01-11T05:38:57;17.47;;;11.17;;
19257;SDS011;9763;48.780;9.212;2024-01-11T05:42:20;15.83;;;10.60;;
19257;SDS011;9763;48.780;9.212;2024-01-11T05:45:44;16.17;;;10.13;;
19257;SDS011;9763;48.780;9.212;2024-01-11T05:49:10;15.27;;;9.30;;
19257;SDS011;9763;48.780;9.212;2024-01-11T05:52:34;13.67;;;9.60;;
19257;SDS011;9763;48.780;9.212;2024-01-11T05:55:58;14.30;;;8.90;;
19257;SDS011;9763;48.780;9.212;2024-01-11T05:59:22;18.00;;;11.00;;
19257;SDS011;9763;48.780;9.212;2024-01-11T06:02:45;13.53;;;8.60;;
19257;SDS011;9763;48.780;9.212;2024-01-11T06:06:10;15.17;;;10.23;;
19257;SDS011;9763;48.780;9.212;2024-01-11T06:09:37;11.57;;;8.90;;
19257;SDS011;9763;48.780;9.212;2024-01-11T06:13:01;16.17;;;9.50;;
19257;SDS011;9763;48.780;9.212;2024-01-11T06:16:24;13.67;;;9.50;;
19257;SDS011;9763;48.780;9.212;2024-01-11T06:19:48;13.73;;;9.80;;
19257;SDS011;9763;48.780;9.212;2024-01-11T06:23:13;14.00;;;9.63;;
19257;SDS011;9763;48.780;9.212;2024-01-11T06:26:38;13.40;;;9.47;;
19257;SDS011;9763;48.780;9.212;2024-01-11T06:30:02;15.30;;;10.80;;
19257;SDS011;9763;48.780;9.212;2024-01-11T06:33:28;15.70;;;9.97;;
19257;SDS011;9763;48.780;9.212;2024-01-11T06:36:54;19.40;;;11.57;;
19257;SDS011;9763;48.780;9.212;2024-01-11T06:40:19;15.10;;;9.77;;
19257;SDS011;9763;48.780;9.212;2024-01-11T06:43:43;16.53;;;10.20;;
19257;SDS011;9763;48.780;9.212;2024-01-11T06:47:06;14.57;;;9.37;;
19257;SDS011;9763;48.780;9.212;2024-01-11T06:50:30;13.00;;;9.50;;
19257;SDS011;9763;48.780;9.212;2024-01-11T06:53:53;15.30;;;10.30;;
19257;SDS011;9763;48.780;9.212;2024-01-11T06:57:18;14.67;;;8.83;;
19257;SDS011;9763;48.780;9.212;2024-01-11T07:00:42;12.47;;;9.80;;
19257;SDS011;9763;48.780;9.212;2024-01-11T07:04:06;12.00;;;7.90;;
19257;SDS011;9763;48.780;9.212;2024-01-11T07:07:29;13.40;;;9.57;;
19257;SDS011;9763;48.780;9.212;2024-01-11T07:10:55;13.83;;;9.70;;
19257;SDS011;9763;48.780;9.212;2024-01-11T07:14:20;13.10;;;8.67;;
19257;SDS011;9763;48.780;9.212;2024-01-11T07:17:44;14.57;;;9.50;;
19257;SDS011;9763;48.780;9.212;2024-01-11T07:21:08;17.03;;;10.20;;
19257;SDS011;9763;48.780;9.212;2024-01-11T07:24:31;16.00;;;9.73;;
19257;SDS011;9763;48.780;9.212;2024-01-11T07:27:59;17.03;;;10.07;;
19257;SDS011;9763;48.780;9.212;2024-01-11T07:31:24;17.97;;;10.00;;
19257;SDS011;9763;48.780;9.212;2024-01-11T07:34:48;16.27;;;10.63;;
19257;SDS011;9763;48.780;9.212;2024-01-11T07:38:11;16.67;;;10.33;;
19257;SDS011;9763;48.780;9.212;2024-01-11T07:41:35;15.50;;;10.57;;
19257;SDS011;9763;48.780;9.212;2024-01-11T07:45:02;15.83;;;11.17;;
19257;SDS011;9763;48.780;9.212;2024-01-11T07:48:28;14.90;;;10.20;;
19257;SDS011;9763;48.780;9.212;2024-01-11T07:51:52;16.47;;;10.40;;
19257;SDS011;9763;48.780;9.212;2024-01-11T07:55:16;18.17;;;11.57;;
19257;SDS011;9763;48.780;9.212;2024-01-11T07:58:45;18.47;;;11.13;;
19257;SDS011;9763;48.780;9.212;2024-01-11T08:02:11;16.50;;;10.50;;
19257;SDS011;9763;48.780;9.212;2024-01-11T08:05:35;20.07;;;11.67;;
19257;SDS011;9763;48.780;9.212;2024-01-11T08:08:59;15.70;;;11.37;;
19257;SDS011;9763;48.780;9.212;2024-01-11T08:12:24;14.47;;;11.10;;
19257;SDS011;9763;48.780;9.212;2024-01-11T08:15:48;16.70;;;11.63;;
19257;SDS011;9763;48.780;9.212;2024-01-11T08:19:12;18.90;;;12.30;;
19257;SDS011;9763;48.780;9.212;2024-01-11T08:22:37;15.77;;;11.57;;
19257;SDS011;9763;48.780;9.212;2024-01-11T08:26:02;17.10;;;11.87;;
19257;SDS011;9763;48.780;9.212;2024-01-11T08:29:27;20.37;;;13.30;;
19257;SDS011;9763;48.780;9.212;2024-01-11T08:32:51;21.97;;;12.20;;
19257;SDS011;9763;48.780;9.212;2024-01-11T08:36:15;18.63;;;11.73;;
19257;SDS011;9763;48.780;9.212;2024-01-11T08:39:41;19.03;;;12.10;;
19257;SDS011;9763;48.780;9.212;2024-01-11T08:43:05;17.47;;;12.67;;
19257;SDS011;9763;48.780;9.212;2024-01-11T08:46:29;21.20;;;12.80;;
19257;SDS011;9763;48.780;9.212;2024-01-11T08:49:54;22.00;;;12.87;;
19257;SDS011;9763;48.780;9.212;2024-01-11T08:53:18;19.03;;;13.07;;
19257;SDS011;9763;48.780;9.212;2024-01-11T08:56:43;19.13;;;14.00;;
19257;SDS011;9763;48.780;9.212;2024-01-11T09:00:07;19.50;;;12.87;;
19257;SDS011;9763;48.780;9.212;2024-01-11T09:03:32;20.87;;;13.77;;
19257;SDS011;9763;48.780;9.212;2024-01-11T09:06:55;21.20;;;13.37;;
19257;SDS011;9763;48.780;9.212;2024-01-11T09:10:19;21.27;;;13.70;;
19257;SDS011;9763;48.780;9.212;2024-01-11T09:13:44;19.60;;;13.77;;
19257;SDS011;9763;48.780;9.212;2024-01-11T09:17:08;21.70;;;13.90;;
19257;SDS011;9763;48.780;9.212;2024-01-11T09:20:32;21.53;;;13.77;;
19257;SDS011;9763;48.780;9.212;2024-01-11T09:23:55;20.67;;;13.40;;
19257;SDS011;9763;48.780;9.212;2024-01-11T09:27:19;20.00;;;13.70;;
19257;SDS011;9763;48.780;9.212;2024-01-11T09:30:45;21.07;;;14.00;;
19257;SDS011;9763;48.780;9.212;2024-01-11T09:34:09;20.77;;;14.10;;
19257;SDS011;9763;48.780;9.212;2024-01-11T09:37:32;20.60;;;14.60;;
19257;SDS011;9763;48.780;9.212;2024-01-11T09:40:59;22.97;;;14.20;;
19257;SDS011;9763;48.780;9.212;2024-01-11T09:44:33;24.20;;;15.07;;
19257;SDS011;9763;48.780;9.212;2024-01-11T09:47:58;21.63;;;15.80;;
19257;SDS011;9763;48.780;9.212;2024-01-11T09:51:24;20.90;;;15.07;;
19257;SDS011;9763;48.780;9.212;2024-01-11T09:54:50;21.83;;;15.17;;
19257;SDS011;9763;48.780;9.212;2024-01-11T09:58:14;19.87;;;14.17;;
19257;SDS011;9763;48.780;9.212;2024-01-11T10:01:38;21.10;;;15.70;;
19257;SDS011;9763;48.780;9.212;2024-01-11T10:05:04;20.60;;;15.47;;
19257;SDS011;9763;48.780;9.212;2024-01-11T10:08:30;23.57;;;15.87;;
19257;SDS011;9763;48.780;9.212;2024-01-11T10:11:55;23.30;;;17.33;;
19257;SDS011;9763;48.780;9.212;2024-01-11T10:15:19;28.57;;;17.40;;
19257;SDS011;9763;48.780;9.212;2024-01-11T10:18:47;23.47;;;17.90;;
19257;SDS011;9763;48.780;9.212;2024-01-11T10:22:13;28.53;;;20.37;;
19257;SDS011;9763;48.780;9.212;2024-01-11T10:25:39;26.23;;;18.70;;
19257;SDS011;9763;48.780;9.212;2024-01-11T10:29:05;22.93;;;16.00;;
19257;SDS011;9763;48.780;9.212;2024-01-11T10:32:34;25.53;;;17.40;;
19257;SDS011;9763;48.780;9.212;2024-01-11T10:35:58;24.20;;;18.07;;
19257;SDS011;9763;48.780;9.212;2024-01-11T10:39:25;26.57;;;18.87;;
19257;SDS011;9763;48.780;9.212;2024-01-11T10:42:50;26.83;;;18.10;;
19257;SDS011;9763;48.780;9.212;2024-01-11T10:46:15;26.13;;;19.73;;
19257;SDS011;9763;48.780;9.212;2024-01-11T10:49:46;28.50;;;20.77;;
19257;SDS011;9763;48.780;9.212;2024-01-11T10:53:25;28.80;;;21.47;;
19257;SDS011;9763;48.780;9.212;2024-01-11T10:57:00;25.00;;;17.03;;
19257;SDS011;9763;48.780;9.212;2024-01-11T11:00:27;18.77;;;14.87;;
19257;SDS011;9763;48.780;9.212;2024-01-11T11:03:51;14.47;;;11.47;;
19257;SDS011;9763;48.780;9.212;2024-01-11T11:07:17;14.00;;;10.20;;
19257;SDS011;9763;48.780;9.212;2024-01-11T11:10:42;13.03;;;10.43;;
19257;SDS011;9763;48.780;9.212;2024-01-11T11:14:11;13.90;;;11.30;;
19257;SDS011;9763;48.780;9.212;2024-01-11T11:17:39;13.90;;;11.07;;
19257;SDS011;9763;48.780;9.212;2024-01-11T11:21:06;13.50;;;9.80;;
19257;SDS011;9763;48.780;9.212;2024-01-11T11:24:33;13.80;;;10.60;;
19257;SDS011;9763;48.780;9.212;2024-01-11T11:27:57;12.37;;;9.83;;
19257;SDS011;9763;48.780;9.212;2024-01-11T11:31:36;20.20;;;16.77;;
19257;SDS011;9763;48.780;9.212;2024-01-11T11:35:05;21.80;;;15.97;;
19257;SDS011;9763;48.780;9.212;2024-01-11T11:38:30;17.73;;;13.93;;
19257;SDS011;9763;48.780;9.212;2024-01-11T11:41:55;19.20;;;14.67;;
19257;SDS011;9763;48.780;9.212;2024-01-11T11:45:24;16.40;;;13.13;;
19257;SDS011;9763;48.780;9.212;2024-01-11T11:48:51;15.60;;;13.07;;
19257;SDS011;9763;48.780;9.212;2024-01-11T11:52:16;16.37;;;12.33;;
19257;SDS011;9763;48.780;9.212;2024-01-11T11:55:41;21.17;;;15.20;;
19257;SDS011;9763;48.780;9.212;2024-01-11T11:59:05;19.57;;;14.77;;
19257;SDS011;9763;48.780;9.212;2024-01-11T12:02:31;24.43;;;18.17;;
19257;SDS011;9763;48.780;9.212;2024-01-11T12:05:59;24.50;;;17.83;;
19257;SDS011;9763;48.780;9.212;2024-01-11T12:09:24;22.73;;;18.20;;
19257;SDS011;9763;48.780;9.212;2024-01-11T12:12:48;28.17;;;19.13;;
19257;SDS011;9763;48.780;9.212;2024-01-11T12:16:12;26.67;;;19.40;;
19257;SDS011;9763;48.780;9.212;2024-01-11T12:19:35;24.73;;;19.60;;
19257;SDS011;9763;48.780;9.212;2024-01-11T12:23:00;31.67;;;22.50;;
19257;SDS011;9763;48.780;9.212;2024-01-11T12:26:25;27.10;;;19.90;;
19257;SDS011;9763;48.780;9.212;2024-01-11T12:29:49;27.50;;;21.77;;
19257;SDS011;9763;48.780;9.212;2024-01-11T12:33:20;28.33;;;22.10;;
19257;SDS011;9763;48.780;9.212;2024-01-11T12:36:44;25.00;;;19.90;;
19257;SDS011;9763;48.780;9.212;2024-01-11T12:40:09;27.27;;;21.23;;
19257;SDS011;9763;48.780;9.212;2024-01-11T12:43:35;25.60;;;20.53;;
19257;SDS011;9763;48.780;9.212;2024-01-11T12:46:59;27.97;;;19.20;;
19257;SDS011;9763;48.780;9.212;2024-01-11T12:50:24;28.70;;;20.73;;
19257;SDS011;9763;48.780;9.212;2024-01-11T12:53:50;26.63;;;19.93;;
19257;SDS011;9763;48.780;9.212;2024-01-11T12:57:19;31.77;;;23.20;;
19257;SDS011;9763;48.780;9.212;2024-01-11T13:00:44;30.80;;;21.00;;
19257;SDS011;9763;48.780;9.212;2024-01-11T13:04:08;30.40;;;22.30;;
19257;SDS011;9763;48.780;9.212;2024-01-11T13:07:33;30.27;;;22.40;;
19257;SDS011;9763;48.780;9.212;2024-01-11T13:10:56;30.07;;;21.53;;
19257;SDS011;9763;48.780;9.212;2024-01-11T13:14:21;29.37;;;21.23;;
19257;SDS011;9763;48.780;9.212;2024-01-11T13:17:45;27.53;;;21.87;;
19257;SDS011;9763;48.780;9.212;2024-01-11T13:21:08;30.60;;;21.30;;
19257;SDS011;9763;48.780;9.212;2024-01-11T13:24:34;27.63;;;21.43;;
19257;SDS011;9763;48.780;9.212;2024-01-11T13:27:57;25.47;;;16.87;;
19257;SDS011;9763;48.780;9.212;2024-01-11T13:31:23;29.90;;;23.70;;
19257;SDS011;9763;48.780;9.212;2024-01-11T13:34:47;27.77;;;22.47;;
19257;SDS011;9763;48.780;9.212;2024-01-11T13:38:15;29.53;;;22.23;;
19257;SDS011;9763;48.780;9.212;2024-01-11T13:41:39;26.00;;;19.70;;
19257;SDS011;9763;48.780;9.212;2024-01-11T13:45:04;27.60;;;20.43;;
19257;SDS011;9763;48.780;9.212;2024-01-11T13:48:31;28.60;;;20.87;;
19257;SDS011;9763;48.780;9.212;2024-01-11T13:51:56;28.07;;;20.63;;
19257;SDS011;9763;48.780;9.212;2024-01-11T13:55:23;26.47;;;21.13;;
19257;SDS011;9763;48.780;9.212;2024-01-11T13:58:47;28.03;;;20.70;;
19257;SDS011;9763;48.780;9.212;2024-01-11T14:02:11;27.57;;;21.60;;
19257;SDS011;9763;48.780;9.212;2024-01-11T14:05:36;26.63;;;21.03;;
19257;SDS011;9763;48.780;9.212;2024-01-11T14:09:00;29.03;;;21.50;;
19257;SDS011;9763;48.780;9.212;2024-01-11T14:12:26;31.13;;;23.40;;
19257;SDS011;9763;48.780;9.212;2024-01-11T14:15:49;26.43;;;21.73;;
19257;SDS011;9763;48.780;9.212;2024-01-11T14:19:13;25.80;;;19.80;;
19257;SDS011;9763;48.780;9.212;2024-01-11T14:22:39;29.23;;;20.30;;
19257;SDS011;9763;48.780;9.212;2024-01-11T14:26:04;32.00;;;21.53;;
19257;SDS011;9763;48.780;9.212;2024-01-11T14:29:29;27.50;;;21.80;;
19257;SDS011;9763;48.780;9.212;2024-01-11T14:32:52;25.53;;;20.53;;
19257;SDS011;9763;48.780;9.212;2024-01-11T14:36:16;35.37;;;22.53;;
19257;SDS011;9763;48.780;9.212;2024-01-11T14:39:41;24.03;;;19.10;;
19257;SDS011;9763;48.780;9.212;2024-01-11T14:43:05;30.30;;;21.90;;
19257;SDS011;9763;48.780;9.212;2024-01-11T14:46:30;27.57;;;20.43;;
19257;SDS011;9763;48.780;9.212;2024-01-11T14:49:53;23.03;;;18.77;;
19257;SDS011;9763;48.780;9.212;2024-01-11T14:53:17;27.80;;;19.90;;
19257;SDS011;9763;48.780;9.212;2024-01-11T14:56:42;26.40;;;21.50;;
19257;SDS011;9763;48.780;9.212;2024-01-11T15:00:06;32.60;;;21.30;;
19257;SDS011;9763;48.780;9.212;2024-01-11T15:03:32;28.70;;;19.47;;
19257;SDS011;9763;48.780;9.212;2024-01-11T15:06:56;28.10;;;19.63;;
19257;SDS011;9763;48.780;9.212;2024-01-11T15:10:19;32.30;;;23.20;;
19257;SDS011;9763;48.780;9.212;2024-01-11T15:13:44;32.07;;;25.70;;
19257;SDS011;9763;48.780;9.212;2024-01-11T15:17:08;28.73;;;23.20;;
19257;SDS011;9763;48.780;9.212;2024-01-11T15:20:32;30.57;;;22.33;;
19257;SDS011;9763;48.780;9.212;2024-01-11T15:23:56;30.40;;;22.20;;
19257;SDS011;9763;48.780;9.212;2024-01-11T15:27:21;31.00;;;22.37;;
19257;SDS011;9763;48.780;9.212;2024-01-11T15:30:46;29.33;;;20.27;;
19257;SDS011;9763;48.780;9.212;2024-01-11T15:34:10;30.57;;;22.63;;
19257;SDS011;9763;48.780;9.212;2024-01-11T15:37:35;29.30;;;20.97;;
19257;SDS011;9763;48.780;9.212;2024-01-11T15:40:58;31.57;;;21.07;;
19257;SDS011;9763;48.780;9.212;2024-01-11T15:44:22;22.30;;;17.90;;
19257;SDS011;9763;48.780;9.212;2024-01-11T15:47:48;38.43;;;21.57;;
19257;SDS011;9763;48.780;9.212;2024-01-11T15:51:12;27.30;;;18.80;;
19257;SDS011;9763;48.780;9.212;2024-01-11T15:54:36;24.17;;;16.27;;
19257;SDS011;9763;48.780;9.212;2024-01-11T15:57:59;29.47;;;20.87;;
19257;SDS011;9763;48.780;9.212;2024-01-11T16:01:23;25.70;;;19.37;;
19257;SDS011;9763;48.780;9.212;2024-01-11T16:04:49;26.73;;;19.90;;
19257;SDS011;9763;48.780;9.212;2024-01-11T16:08:12;28.67;;;20.47;;
19257;SDS011;9763;48.780;9.212;2024-01-11T16:11:36;27.97;;;21.27;;
19257;SDS011;9763;48.780;9.212;2024-01-11T16:15:00;29.67;;;20.60;;
19257;SDS011;9763;48.780;9.212;2024-01-11T16:18:24;21.40;;;17.00;;
19257;SDS011;9763;48.780;9.212;2024-01-11T16:21:49;25.93;;;18.20;;
19257;SDS011;9763;48.780;9.212;2024-01-11T16:25:13;27.30;;;18.83;;
19257;SDS011;9763;48.780;9.212;2024-01-11T16:28:37;25.10;;;18.70;;
19257;SDS011;9763;48.780;9.212;2024-01-11T16:32:01;23.40;;;17.60;;
19257;SDS011;9763;48.780;9.212;2024-01-11T16:35:25;27.90;;;19.23;;
19257;SDS011;9763;48.780;9.212;2024-01-11T16:38:50;32.67;;;20.57;;
19257;SDS011;9763;48.780;9.212;2024-01-11T16:42:14;23.20;;;18.43;;
19257;SDS011;9763;48.780;9.212;2024-01-11T16:45:40;21.60;;;16.80;;
19257;SDS011;9763;48.780;9.212;2024-01-11T16:49:03;28.47;;;20.27;;
19257;SDS011;9763;48.780;9.212;2024-01-11T16:52:27;26.77;;;18.63;;
19257;SDS011;9763;48.780;9.212;2024-01-11T16:55:52;27.03;;;18.57;;
19257;SDS011;9763;48.780;9.212;2024-01-11T16:59:16;23.17;;;16.70;;
19257;SDS011;9763;48.780;9.212;2024-01-11T17:02:40;25.17;;;18.97;;
19257;SDS011;9763;48.780;9.212;2024-01-11T17:06:04;22.27;;;17.37;;
19257;SDS011;9763;48.780;9.212;2024-01-11T17:09:29;24.60;;;18.80;;
19257;SDS011;9763;48.780;9.212;2024-01-11T17:12:53;23.77;;;17.70;;
19257;SDS011;9763;48.780;9.212;2024-01-11T17:16:17;25.23;;;18.10;;
19257;SDS011;9763;48.780;9.212;2024-01-11T17:19:42;25.50;;;18.07;;
19257;SDS011;9763;48.780;9.212;2024-01-11T17:23:06;27.03;;;17.90;;
19257;SDS011;9763;48.780;9.212;2024-01-11T17:26:29;26.77;;;17.70;;
19257;SDS011;9763;48.780;9.212;2024-01-11T17:29:55;26.17;;;18.47;;
19257;SDS011;9763;48.780;9.212;2024-01-11T17:33:19;25.30;;;18.00;;
19257;SDS011;9763;48.780;9.212;2024-01-11T17:36:43;25.27;;;17.67;;
19257;SDS011;9763;48.780;9.212;2024-01-11T17:40:07;24.73;;;18.80;;
19257;SDS011;9763;48.780;9.212;2024-01-11T17:43:31;24.67;;;17.77;;
19257;SDS011;9763;48.780;9.212;2024-01-11T17:46:58;24.00;;;16.07;;
19257;SDS011;9763;48.780;9.212;2024-01-11T17:50:22;21.80;;;16.30;;
19257;SDS011;9763;48.780;9.212;2024-01-11T17:53:46;27.20;;;17.97;;
19257;SDS011;9763;48.780;9.212;2024-01-11T17:57:13;21.27;;;16.17;;
19257;SDS011;9763;48.780;9.212;2024-01-11T18:00:37;26.93;;;17.47;;
19257;SDS011;9763;48.780;9.212;2024-01-11T18:04:06;23.00;;;16.20;;
19257;SDS011;9763;48.780;9.212;2024-01-11T18:07:30;31.13;;;18.60;;
19257;SDS011;9763;48.780;9.212;2024-01-11T18:10:54;23.70;;;16.70;;
19257;SDS011;9763;48.780;9.212;2024-01-11T18:14:18;26.67;;;17.20;;
19257;SDS011;9763;48.780;9.212;2024-01-11T18:17:42;20.77;;;15.07;;
19257;SDS011;9763;48.780;9.212;2024-01-11T18:21:07;24.20;;;16.30;;
19257;SDS011;9763;48.780;9.212;2024-01-11T18:24:30;20.30;;;13.97;;
19257;SDS011;9763;48.780;9.212;2024-01-11T18:27:55;22.77;;;16.57;;
19257;SDS011;9763;48.780;9.212;2024-01-11T18:31:18;20.50;;;15.67;;
19257;SDS011;9763;48.780;9.212;2024-01-11T18:34:44;18.50;;;15.60;;
19257;SDS011;9763;48.780;9.212;2024-01-11T18:38:09;22.00;;;15.50;;
19257;SDS011;9763;48.780;9.212;2024-01-11T18:41:32;21.70;;;15.93;;
19257;SDS011;9763;48.780;9.212;2024-01-11T18:44:56;18.63;;;14.40;;
19257;SDS011;9763;48.780;9.212;2024-01-11T18:48:20;19.47;;;14.40;;
19257;SDS011;9763;48.780;9.212;2024-01-11T18:51:44;20.83;;;14.33;;
19257;SDS011;9763;48.780;9.212;2024-01-11T18:55:10;17.90;;;14.33;;
19257;SDS011;9763;48.780;9.212;2024-01-11T18:58:38;17.03;;;13.90;;
19257;SDS011;9763;48.780;9.212;2024-01-11T19:02:02;15.73;;;12.43;;
19257;SDS011;9763;48.780;9.212;2024-01-11T19:05:25;20.90;;;14.37;;
19257;SDS011;9763;48.780;9.212;2024-01-11T19:08:49;19.23;;;14.30;;
19257;SDS011;9763;48.780;9.212;2024-01-11T19:12:14;20.63;;;13.97;;
19257;SDS011;9763;48.780;9.212;2024-01-11T19:15:38;19.60;;;14.30;;
19257;SDS011;9763;48.780;9.212;2024-01-11T19:19:02;20.53;;;14.57;;
19257;SDS011;9763;48.780;9.212;2024-01-11T19:22:25;17.53;;;13.50;;
19257;SDS011;9763;48.780;9.212;2024-01-11T19:25:49;15.87;;;13.00;;
19257;SDS011;9763;48.780;9.212;2024-01-11T19:29:15;19.57;;;13.40;;
19257;SDS011;9763;48.780;9.212;2024-01-11T19:32:39;17.17;;;13.20;;
19257;SDS011;9763;48.780;9.212;2024-01-11T19:36:03;17.63;;;12.60;;
19257;SDS011;9763;48.780;9.212;2024-01-11T19:39:27;18.57;;;13.37;;
19257;SDS011;9763;48.780;9.212;2024-01-11T19:42:51;17.27;;;12.43;;
19257;SDS011;9763;48.780;9.212;2024-01-11T19:46:19;21.50;;;14.27;;
19257;SDS011;9763;48.780;9.212;2024-01-11T19:49:43;18.90;;;12.77;;
19257;SDS011;9763;48.780;9.212;2024-01-11T19:53:07;24.30;;;14.80;;
19257;SDS011;9763;48.780;9.212;2024-01-11T19:56:31;18.67;;;14.13;;
19257;SDS011;9763;48.780;9.212;2024-01-11T19:59:55;23.40;;;15.07;;
19257;SDS011;9763;48.780;9.212;2024-01-11T20:03:20;18.43;;;13.00;;
19257;SDS011;9763;48.780;9.212;2024-01-11T20:06:43;21.07;;;14.60;;
19257;SDS011;9763;48.780;9.212;2024-01-11T20:10:07;21.87;;;15.07;;
19257;SDS011;9763;48.780;9.212;2024-01-11T20:13:32;18.70;;;13.67;;
19257;SDS011;9763;48.780;9.212;2024-01-11T20:16:56;18.77;;;12.97;;